LavenderCAM.net
Leatherhead Weather
 
 





Member of StrikeStar EU

Aviation weather for

London Heathrow (EGLL) and London Gatwick (EGKK)



London Heathrow (EGLL) METAR / Surface Actual
London / Heathrow Airport, United Kingdom (EGLL) 51-29N 000-27W 0M
Jul 17, 2018 - 12:50 AM EDT / 2018.07.17 0450 UTC
Wind: from the W (270 degrees) at 9 MPH (8 KT):0
Visibility: greater than 7 mile(s):0
Temperature: 55 F (13 C)
Dew Point: 51 F (11 C)
Relative Humidity: 87%
Pressure (altimeter): 29.97 in. Hg (1015 hPa)
ob: EGLL 170450Z AUTO 27008KT 9999 NCD 13/11 Q1015 NOSIG
cycle: 5
London Heathrow (EGLL) TAF / Forecast
2018/07/16 18:16
TAF EGLL 161701Z 1618/1724 26006KT CAVOK


London Gatwick (EGKK) METAR / Surface Actual
London / Gatwick Airport, United Kingdom (EGKK) 51-09N 000-11W 0M
Jul 17, 2018 - 12:50 AM EDT / 2018.07.17 0450 UTC
Wind: from the SW (230 degrees) at 7 MPH (6 KT):0
Visibility: greater than 7 mile(s):0
Temperature: 55 F (13 C)
Dew Point: 51 F (11 C)
Relative Humidity: 87%
Pressure (altimeter): 29.97 in. Hg (1015 hPa)
ob: EGKK 170450Z 23006KT CAVOK 13/11 Q1015
cycle: 5
London Gatwick (EGKK) TAF / Forecast
2018/07/16 18:15
TAF EGKK 161652Z 1618/1724 24008KT CAVOK